Time;durP1;ratioP1;P1;durP2;ratioP2;P2;SDS_P1;SDS_P2;PMS_P1;PMS_P2;Temp;Humidity;BMP_temperature;BMP_pressure;BME280_temperature;BME280_humidity;BME280_pressure;Samples;Min_cycle;Max_cycle;Signal;HPM_P1;HPM_P2
2023/08/30 00:02:05;;;;;;;11.90;10.70;;;13.10;49.30;;;;;;5113309;28;20197;-70
2023/08/30 00:04:30;;;;;;;11.57;10.40;;;13.10;48.30;;;;;;5114502;28;20187;-71
2023/08/30 00:06:56;;;;;;;10.53;9.43;;;13.00;49.10;;;;;;5114529;28;20183;-70
2023/08/30 00:09:21;;;;;;;10.97;9.90;;;13.00;49.10;;;;;;5113967;28;20184;-71
2023/08/30 00:11:47;;;;;;;14.77;10.93;;;13.00;49.10;;;;;;5113010;28;20241;-70
2023/08/30 00:14:13;;;;;;;10.43;9.43;;;13.00;48.00;;;;;;5113965;28;20212;-71
2023/08/30 00:16:38;;;;;;;10.67;9.30;;;13.00;49.20;;;;;;5113469;28;20176;-70
2023/08/30 00:19:04;;;;;;;10.47;9.47;;;13.00;48.40;;;;;;5113066;28;20559;-71
2023/08/30 00:21:30;;;;;;;12.37;11.23;;;13.00;49.10;;;;;;5112319;28;20302;-71
2023/08/30 00:23:55;;;;;;;13.53;12.17;;;13.10;49.10;;;;;;5094395;28;20593;-71
2023/08/30 00:26:21;;;;;;;16.00;13.33;;;13.10;48.50;;;;;;5112975;28;20414;-71
2023/08/30 00:28:47;;;;;;;17.33;15.57;;;13.00;49.00;;;;;;5094283;28;20188;-71
2023/08/30 00:31:12;;;;;;;14.93;13.33;;;13.00;48.60;;;;;;5112375;28;20237;-71
2023/08/30 00:33:38;;;;;;;20.83;16.10;;;13.00;48.80;;;;;;5112235;28;20237;-71
2023/08/30 00:36:04;;;;;;;15.30;13.47;;;13.10;49.80;;;;;;5112384;28;20175;-71
2023/08/30 00:38:32;;;;;;;17.50;15.80;;;13.10;48.50;;;;;;5094059;28;20264;-71
2023/08/30 00:40:58;;;;;;;25.20;19.83;;;13.10;48.10;;;;;;5112290;28;20430;-71
2023/08/30 00:43:23;;;;;;;17.57;15.83;;;13.10;47.50;;;;;;5112078;28;20945;-71
2023/08/30 00:45:49;;;;;;;22.17;18.83;;;13.00;48.00;;;;;;5112261;28;20169;-71
2023/08/30 00:48:18;;;;;;;20.00;18.03;;;13.00;49.00;;;;;;5112252;28;20645;-71
2023/08/30 00:50:44;;;;;;;20.00;17.93;;;13.00;48.20;;;;;;5112361;28;20456;-71
2023/08/30 00:53:10;;;;;;;19.17;17.10;;;13.00;48.00;;;;;;5115938;28;20416;-71
2023/08/30 00:55:36;;;;;;;21.77;19.50;;;13.00;48.30;;;;;;5116356;28;20448;-71
2023/08/30 00:58:02;;;;;;;19.90;17.67;;;13.00;49.10;;;;;;5116236;28;20437;-71
2023/08/30 01:00:30;;;;;;;18.43;16.53;;;13.00;48.60;;;;;;5097712;28;20426;-71
2023/08/30 01:02:56;;;;;;;16.50;14.80;;;13.00;49.10;;;;;;5115774;28;20418;-71
2023/08/30 01:05:22;;;;;;;16.43;14.80;;;13.00;48.20;;;;;;5116001;28;20464;-71
2023/08/30 01:07:51;;;;;;;14.47;12.97;;;13.00;49.10;;;;;;5115913;28;20417;-71
2023/08/30 01:10:21;;;;;;;13.50;12.03;;;13.00;47.80;;;;;;5115835;28;20421;-71
2023/08/30 01:12:50;;;;;;;15.37;13.77;;;12.90;49.00;;;;;;5115812;28;20485;-71
2023/08/30 01:15:22;;;;;;;15.50;13.00;;;12.80;49.90;;;;;;5115673;28;21022;-71
2023/08/30 01:17:51;;;;;;;12.43;11.13;;;12.80;49.60;;;;;;5115802;28;20436;-71
2023/08/30 01:20:18;;;;;;;12.67;11.37;;;12.80;49.00;;;;;;5115561;28;20428;-71
2023/08/30 01:23:14;;;;;;;13.57;12.17;;;12.70;48.80;;;;;;5115336;28;20440;-71
2023/08/30 01:25:57;;;;;;;12.23;10.90;;;12.70;50.60;;;;;;5115654;28;20418;-71
2023/08/30 01:28:26;;;;;;;13.50;12.10;;;12.60;49.60;;;;;;5115391;28;20420;-71
2023/08/30 01:30:57;;;;;;;12.77;11.23;;;12.60;51.10;;;;;;5115418;28;20437;-71
2023/08/30 01:33:23;;;;;;;13.77;12.37;;;12.50;51.70;;;;;;5097027;28;20418;-71
2023/08/30 01:35:50;;;;;;;14.03;12.50;;;12.50;51.60;;;;;;5115470;28;20442;-71
2023/08/30 01:38:16;;;;;;;14.07;12.23;;;12.50;51.30;;;;;;5115452;28;20521;-71
2023/08/30 01:40:44;;;;;;;13.13;10.87;;;12.40;52.60;;;;;;5115267;28;20456;-71
2023/08/30 01:43:13;;;;;;;11.63;10.43;;;12.40;53.10;;;;;;5115077;28;20408;-71
2023/08/30 01:45:43;;;;;;;11.80;10.60;;;12.40;52.30;;;;;;5115161;28;20439;-71
2023/08/30 01:48:11;;;;;;;12.50;11.20;;;12.30;52.40;;;;;;5115194;28;20416;-71
2023/08/30 01:53:03;;;;;;;12.53;11.23;;;12.40;52.10;;;;;;5137066;22;20504;-70
2023/08/30 01:55:30;;;;;;;12.43;9.70;;;12.30;52.90;;;;;;5100645;28;20208;-70
2023/08/30 01:57:56;;;;;;;10.57;9.50;;;12.30;53.30;;;;;;5118818;28;20463;-70
2023/08/30 02:00:21;;;;;;;11.07;9.20;;;12.30;53.40;;;;;;5120076;28;20922;-70
2023/08/30 02:02:48;;;;;;;11.77;10.67;;;12.30;52.80;;;;;;5117767;28;20564;-69
2023/08/30 02:05:14;;;;;;;12.17;10.97;;;12.30;53.40;;;;;;5101032;28;20184;-71
2023/08/30 02:07:56;;;;;;;12.27;10.90;;;12.30;53.40;;;;;;5118827;28;20407;-70
2023/08/30 02:10:30;;;;;;;11.23;10.03;;;12.30;53.40;;;;;;5119216;28;20610;-69
2023/08/30 02:12:58;;;;;;;12.77;11.47;;;12.30;53.40;;;;;;5100925;28;20487;-70
2023/08/30 02:15:26;;;;;;;15.00;11.77;;;12.30;53.40;;;;;;5119652;28;20457;-70
2023/08/30 02:17:52;;;;;;;12.03;10.83;;;12.30;53.40;;;;;;5118171;28;20404;-70
2023/08/30 02:20:18;;;;;;;13.80;12.47;;;12.30;53.40;;;;;;5118739;28;20414;-70
2023/08/30 02:22:44;;;;;;;12.30;11.20;;;12.30;54.10;;;;;;5118141;28;20423;-69
2023/08/30 02:25:10;;;;;;;12.23;11.03;;;12.40;53.50;;;;;;5098778;28;20553;-71
2023/08/30 02:27:35;;;;;;;13.13;11.87;;;12.40;53.50;;;;;;5117381;28;20179;-71
2023/08/30 02:30:02;;;;;;;12.50;11.40;;;12.40;52.40;;;;;;5118193;28;20410;-70
2023/08/30 02:32:28;;;;;;;13.53;12.23;;;12.40;52.10;;;;;;5116602;28;20198;-69
2023/08/30 02:34:54;;;;;;;12.80;11.50;;;12.50;52.90;;;;;;5098545;28;20503;-71
2023/08/30 02:37:19;;;;;;;10.90;9.87;;;12.50;51.70;;;;;;5116615;28;20810;-70
2023/08/30 02:39:45;;;;;;;13.07;11.37;;;12.50;52.60;;;;;;5098779;28;20202;-70
2023/08/30 02:42:10;;;;;;;10.70;9.70;;;12.60;52.20;;;;;;5116632;28;20188;-70
2023/08/30 02:44:36;;;;;;;12.67;11.57;;;12.50;51.40;;;;;;5116863;28;20169;-69
2023/08/30 02:47:02;;;;;;;11.07;9.67;;;12.50;51.10;;;;;;5116727;28;20176;-70
2023/08/30 02:49:27;;;;;;;14.40;12.20;;;12.50;51.20;;;;;;5117503;28;20605;-70
2023/08/30 02:51:53;;;;;;;11.77;10.67;;;12.60;50.80;;;;;;5099869;28;20214;-70
2023/08/30 02:54:18;;;;;;;15.00;10.37;;;12.60;50.00;;;;;;5118937;28;20210;-70
2023/08/30 02:56:44;;;;;;;11.33;10.17;;;12.60;50.30;;;;;;5118171;28;20185;-70
2023/08/30 02:59:10;;;;;;;11.90;10.70;;;12.70;50.10;;;;;;5101138;28;20279;-70
2023/08/30 03:01:37;;;;;;;11.63;10.43;;;12.70;50.40;;;;;;5100571;28;20462;-70
2023/08/30 03:04:05;;;;;;;13.37;10.30;;;12.70;49.60;;;;;;5118642;28;20429;-69
2023/08/30 03:06:32;;;;;;;11.17;9.40;;;12.60;50.10;;;;;;5118145;28;21007;-69
2023/08/30 03:08:57;;;;;;;10.57;9.47;;;12.70;49.90;;;;;;5099788;28;20788;-70
2023/08/30 03:11:23;;;;;;;11.30;10.23;;;12.60;50.40;;;;;;5118405;28;20454;-69
2023/08/30 03:13:48;;;;;;;11.83;10.60;;;12.70;50.90;;;;;;5117728;28;20283;-70
2023/08/30 03:16:17;;;;;;;9.77;8.80;;;12.60;50.90;;;;;;5116548;28;20177;-70
2023/08/30 03:18:44;;;;;;;9.50;8.57;;;12.70;50.50;;;;;;5118220;28;20222;-70
2023/08/30 03:21:10;;;;;;;11.00;9.90;;;12.60;49.60;;;;;;5099364;28;20435;-68
2023/08/30 03:23:36;;;;;;;14.47;10.20;;;12.60;49.60;;;;;;5116125;28;20410;-69
2023/08/30 03:26:15;;;;;;;10.40;9.30;;;12.60;48.70;;;;;;5116006;28;20410;-69
2023/08/30 03:28:42;;;;;;;9.50;8.60;;;12.60;48.70;;;;;;5116487;28;20180;-69
2023/08/30 03:31:25;;;;;;;10.60;9.47;;;12.50;47.50;;;;;;5116173;28;20488;-69
2023/08/30 03:33:51;;;;;;;10.23;9.13;;;12.60;47.20;;;;;;5097810;28;20975;-70
2023/08/30 03:36:18;;;;;;;9.30;8.43;;;12.50;46.20;;;;;;5098168;28;20432;-70
2023/08/30 03:38:44;;;;;;;10.23;7.97;;;12.50;46.60;;;;;;5115302;28;20172;-69
2023/08/30 03:41:13;;;;;;;12.83;9.10;;;12.50;47.30;;;;;;5116050;28;20430;-69
2023/08/30 03:43:39;;;;;;;10.70;9.60;;;12.50;47.50;;;;;;5097691;28;20499;-70
2023/08/30 03:46:04;;;;;;;9.47;8.60;;;12.50;48.10;;;;;;5115767;28;20417;-70
2023/08/30 03:48:30;;;;;;;10.53;9.43;;;12.50;48.00;;;;;;5115461;28;20421;-69
2023/08/30 03:50:57;;;;;;;8.67;7.80;;;12.60;48.70;;;;;;5115676;28;20173;-69
2023/08/30 03:53:23;;;;;;;11.83;9.63;;;12.60;47.80;;;;;;5115954;28;20506;-69
2023/08/30 03:55:48;;;;;;;9.60;8.70;;;12.50;47.70;;;;;;5097374;28;20414;-70
2023/08/30 03:58:15;;;;;;;8.63;7.73;;;12.50;47.40;;;;;;5116049;28;20469;-72
2023/08/30 04:00:40;;;;;;;10.50;9.40;;;12.60;48.60;;;;;;5117757;28;20172;-71
2023/08/30 04:03:09;;;;;;;10.77;9.60;;;12.50;48.60;;;;;;5097009;28;20783;-71
2023/08/30 04:05:38;;;;;;;8.93;7.73;;;12.50;49.00;;;;;;5097434;28;20186;-71
2023/08/30 04:08:05;;;;;;;8.83;7.93;;;12.50;48.60;;;;;;5115505;28;20827;-71
2023/08/30 04:10:39;;;;;;;9.43;8.17;;;12.50;48.60;;;;;;5097529;28;20411;-70
2023/08/30 04:13:05;;;;;;;12.13;10.03;;;12.40;48.80;;;;;;5115110;28;20488;-71
2023/08/30 04:15:35;;;;;;;15.07;9.23;;;12.40;49.50;;;;;;5115341;28;20474;-70
2023/08/30 04:18:01;;;;;;;9.57;8.67;;;12.40;49.30;;;;;;5115976;28;20419;-71
2023/08/30 04:20:26;;;;;;;8.83;7.40;;;12.40;48.50;;;;;;5115598;28;20424;-71
2023/08/30 04:22:53;;;;;;;10.17;9.00;;;12.40;50.20;;;;;;5116192;28;20426;-71
2023/08/30 04:25:18;;;;;;;10.50;8.40;;;12.40;50.10;;;;;;5115977;28;20187;-71
2023/08/30 04:27:44;;;;;;;10.00;8.50;;;12.40;49.40;;;;;;5101034;28;20439;-70
2023/08/30 04:30:10;;;;;;;11.03;9.93;;;12.40;50.00;;;;;;5119725;28;20621;-70
2023/08/30 04:32:36;;;;;;;10.20;9.20;;;12.40;50.80;;;;;;5101561;28;20245;-70
2023/08/30 04:35:02;;;;;;;11.50;10.30;;;12.40;49.10;;;;;;5120125;28;20859;-70
2023/08/30 04:37:31;;;;;;;12.00;10.40;;;12.40;49.10;;;;;;5120096;28;20174;-71
2023/08/30 04:39:57;;;;;;;9.70;8.00;;;12.30;49.20;;;;;;5119351;28;20777;-71
2023/08/30 04:42:22;;;;;;;9.37;8.47;;;12.30;48.40;;;;;;5119252;28;20428;-71
2023/08/30 04:44:48;;;;;;;9.30;8.27;;;12.30;49.60;;;;;;5120094;28;20173;-71
2023/08/30 04:47:14;;;;;;;9.63;8.73;;;12.20;48.90;;;;;;5119204;28;20241;-70
2023/08/30 04:49:39;;;;;;;9.93;8.90;;;12.20;49.60;;;;;;5119530;28;20247;-70
2023/08/30 04:52:05;;;;;;;12.60;9.17;;;12.30;49.00;;;;;;5120714;28;20483;-71
2023/08/30 04:54:31;;;;;;;11.57;10.37;;;12.20;48.80;;;;;;5120886;28;20305;-71
2023/08/30 04:56:56;;;;;;;12.93;11.57;;;12.20;48.30;;;;;;5120717;28;20428;-71
2023/08/30 04:59:22;;;;;;;10.53;9.43;;;12.20;50.10;;;;;;5120099;28;20218;-71
2023/08/30 05:01:48;;;;;;;10.03;9.03;;;12.20;48.30;;;;;;5118970;28;20194;-70
2023/08/30 05:04:13;;;;;;;11.37;9.63;;;12.30;49.70;;;;;;5118923;28;20191;-71
2023/08/30 05:06:39;;;;;;;9.60;8.53;;;12.30;50.80;;;;;;5118784;28;20172;-71
2023/08/30 05:09:05;;;;;;;11.83;10.27;;;12.30;49.50;;;;;;5119015;28;20474;-72
2023/08/30 05:11:30;;;;;;;13.17;10.80;;;12.30;50.20;;;;;;5119219;28;20196;-70
2023/08/30 05:13:56;;;;;;;11.87;9.93;;;12.30;50.10;;;;;;5118585;28;20330;-71
2023/08/30 05:16:21;;;;;;;12.37;9.50;;;12.50;50.70;;;;;;5118439;28;20208;-71
2023/08/30 05:18:50;;;;;;;9.20;8.30;;;12.50;50.40;;;;;;5100832;28;20237;-71
2023/08/30 05:21:15;;;;;;;9.97;9.00;;;12.70;50.10;;;;;;5100558;28;20200;-71
2023/08/30 05:23:42;;;;;;;10.60;9.50;;;12.70;49.00;;;;;;5117388;28;20428;-71
2023/08/30 05:26:14;;;;;;;10.20;8.17;;;12.90;47.50;;;;;;5117645;28;20256;-71
2023/08/30 05:28:39;;;;;;;9.30;8.27;;;13.00;47.30;;;;;;5117227;28;20467;-71
2023/08/30 05:31:05;;;;;;;9.90;8.90;;;13.10;47.50;;;;;;5117692;28;20939;-71
2023/08/30 05:33:31;;;;;;;10.50;8.57;;;13.40;48.10;;;;;;5099341;28;20181;-71
2023/08/30 05:35:57;;;;;;;9.73;8.83;;;13.50;44.40;;;;;;5099874;28;20414;-70
2023/08/30 05:38:22;;;;;;;9.13;8.23;;;13.60;41.60;;;;;;5118281;28;20187;-71
2023/08/30 05:40:48;;;;;;;8.73;7.30;;;13.60;37.40;;;;;;5117921;28;20205;-71
2023/08/30 05:43:15;;;;;;;8.53;7.73;;;13.70;36.10;;;;;;5117555;28;20180;-70
2023/08/30 05:45:40;;;;;;;7.60;6.90;;;13.80;36.70;;;;;;5117179;28;20179;-71
2023/08/30 05:48:06;;;;;;;11.60;8.03;;;13.90;34.40;;;;;;5117448;28;20405;-70
2023/08/30 05:50:31;;;;;;;10.17;8.37;;;13.90;34.40;;;;;;5099786;28;20187;-71
2023/08/30 05:52:57;;;;;;;9.63;7.60;;;14.00;35.90;;;;;;5116410;28;20212;-68
2023/08/30 05:55:23;;;;;;;7.63;6.70;;;14.00;33.80;;;;;;5114654;28;20208;-69
2023/08/30 05:57:48;;;;;;;11.10;7.80;;;14.10;31.20;;;;;;5115711;28;20173;-71
2023/08/30 06:00:14;;;;;;;8.23;7.40;;;14.10;32.10;;;;;;5115770;28;20173;-70
2023/08/30 06:02:40;;;;;;;12.20;7.80;;;14.20;30.40;;;;;;5116348;28;20224;-71
2023/08/30 06:05:06;;;;;;;9.30;8.37;;;14.30;30.00;;;;;;5116641;28;20421;-71
2023/08/30 06:07:32;;;;;;;8.93;8.03;;;14.30;31.20;;;;;;5116541;28;20402;-70
2023/08/30 06:09:58;;;;;;;10.37;9.27;;;14.30;29.70;;;;;;5116046;28;20406;-70
2023/08/30 06:12:25;;;;;;;7.53;6.73;;;14.40;28.60;;;;;;5116834;28;20189;-71
2023/08/30 06:14:52;;;;;;;8.30;7.10;;;14.50;28.00;;;;;;5116146;28;20461;-71
2023/08/30 06:17:21;;;;;;;6.83;6.13;;;14.50;27.90;;;;;;5116268;28;20704;-71
2023/08/30 06:19:47;;;;;;;11.70;9.47;;;14.40;26.60;;;;;;5097556;28;20467;-71
2023/08/30 06:22:13;;;;;;;31.87;8.20;;;14.30;27.40;;;;;;5116935;28;20501;-71
2023/08/30 06:24:38;;;;;;;15.70;7.37;;;14.50;27.00;;;;;;5117329;28;20904;-70
2023/08/30 06:27:04;;;;;;;7.87;7.07;;;14.70;25.80;;;;;;5117017;28;20489;-70
2023/08/30 06:29:30;;;;;;;9.37;6.40;;;14.90;23.80;;;;;;5117024;28;20184;-71
2023/08/30 06:31:55;;;;;;;6.23;5.63;;;15.10;22.70;;;;;;5116176;28;20865;-71
2023/08/30 06:34:21;;;;;;;6.90;6.30;;;15.10;21.80;;;;;;5116134;28;20201;-71
2023/08/30 06:36:47;;;;;;;8.80;6.53;;;15.30;20.50;;;;;;5115903;28;20165;-71
2023/08/30 06:39:12;;;;;;;8.80;7.67;;;15.50;19.80;;;;;;5098553;28;20176;-70
2023/08/30 06:41:38;;;;;;;7.23;5.73;;;15.30;18.10;;;;;;5116541;28;20283;-71
2023/08/30 06:44:03;;;;;;;7.43;6.80;;;15.40;21.10;;;;;;5116941;28;20179;-71
2023/08/30 06:46:29;;;;;;;8.17;7.00;;;15.50;20.50;;;;;;5117259;28;20179;-71
2023/08/30 06:48:55;;;;;;;6.30;5.70;;;15.70;19.80;;;;;;5097977;28;20177;-70
2023/08/30 06:51:20;;;;;;;7.47;5.23;;;16.00;18.90;;;;;;5116171;28;20215;-71
2023/08/30 06:53:46;;;;;;;15.00;13.77;;;16.20;17.00;;;;;;5115730;28;20378;-71
2023/08/30 06:56:12;;;;;;;9.50;7.50;;;16.30;14.70;;;;;;5116378;28;20176;-71
2023/08/30 06:58:38;;;;;;;5.87;5.23;;;16.50;15.40;;;;;;5097980;28;20407;-71
2023/08/30 07:01:04;;;;;;;7.53;6.53;;;16.70;14.30;;;;;;5115948;28;20479;-70
2023/08/30 07:03:29;;;;;;;7.13;6.33;;;16.80;13.20;;;;;;5097926;28;20186;-69
2023/08/30 07:05:55;;;;;;;7.17;6.43;;;17.20;12.00;;;;;;5098298;28;20173;-69
2023/08/30 07:08:21;;;;;;;6.33;5.73;;;17.60;9.40;;;;;;5116267;28;20175;-70
2023/08/30 07:10:46;;;;;;;6.70;5.93;;;17.80;9.50;;;;;;5116406;28;20592;-70
2023/08/30 07:13:12;;;;;;;6.10;5.50;;;18.20;8.60;;;;;;5116448;28;20172;-70
2023/08/30 07:15:42;;;;;;;8.10;5.00;;;18.40;4.70;;;;;;5098112;28;20211;-70
2023/08/30 07:18:08;;;;;;;6.17;5.13;;;18.70;5.10;;;;;;5117035;28;20495;-69
2023/08/30 07:20:36;;;;;;;4.80;4.33;;;18.80;4.40;;;;;;5116580;28;20403;-70
2023/08/30 07:23:02;;;;;;;5.27;4.23;;;19.20;2.10;;;;;;5116380;28;20438;-69
2023/08/30 07:25:28;;;;;;;6.77;4.27;;;19.70;1.00;;;;;;5116987;28;20580;-70
2023/08/30 07:27:53;;;;;;;4.67;4.17;;;20.30;1.00;;;;;;5116693;28;20414;-70
2023/08/30 07:30:19;;;;;;;4.90;3.80;;;20.90;1.00;;;;;;5115685;28;20552;-70
2023/08/30 07:32:45;;;;;;;6.83;4.53;;;21.30;1.00;;;;;;5115043;28;20233;-71
2023/08/30 07:35:10;;;;;;;4.30;3.80;;;22.00;1.00;;;;;;5114791;28;20449;-70
2023/08/30 07:37:36;;;;;;;4.07;3.60;;;22.20;1.00;;;;;;5116177;28;20559;-70
2023/08/30 07:40:05;;;;;;;6.60;3.83;;;22.20;1.00;;;;;;5115550;28;20207;-70
2023/08/30 07:42:30;;;;;;;4.20;3.60;;;22.20;1.00;;;;;;5115372;28;20193;-70
2023/08/30 07:44:56;;;;;;;3.70;2.87;;;21.70;1.00;;;;;;5097591;28;20761;-70
2023/08/30 07:47:21;;;;;;;5.90;4.03;;;21.90;1.00;;;;;;5115830;28;20245;-71
2023/08/30 07:49:47;;;;;;;6.80;3.87;;;21.90;1.00;;;;;;5115166;28;20173;-70
2023/08/30 07:52:13;;;;;;;3.43;3.03;;;21.90;1.00;;;;;;5095871;28;20214;-69
2023/08/30 07:54:40;;;;;;;3.83;3.43;;;22.20;1.00;;;;;;5112445;28;20283;-69
2023/08/30 07:57:05;;;;;;;5.30;2.90;;;22.30;1.00;;;;;;5112435;28;20185;-69
2023/08/30 07:59:36;;;;;;;11.27;4.30;;;22.20;1.00;;;;;;5112520;28;20410;-69
2023/08/30 08:02:03;;;;;;;3.90;3.50;;;22.00;1.00;;;;;;5111192;28;20571;-69
2023/08/30 08:04:28;;;;;;;3.67;3.00;;;22.10;1.00;;;;;;5112310;28;20741;-69
2023/08/30 08:06:54;;;;;;;3.67;3.33;;;21.90;1.00;;;;;;5112217;28;20501;-69
2023/08/30 08:09:21;;;;;;;4.50;3.63;;;22.00;1.00;;;;;;5112310;28;20417;-69
2023/08/30 08:11:48;;;;;;;4.60;3.60;;;22.40;1.00;;;;;;5111960;28;20192;-69
2023/08/30 08:14:13;;;;;;;4.13;3.13;;;22.10;1.00;;;;;;5111965;28;20998;-69
2023/08/30 08:16:39;;;;;;;4.30;3.83;;;21.90;1.00;;;;;;5112205;28;20445;-69
2023/08/30 08:19:06;;;;;;;3.70;3.40;;;21.80;1.00;;;;;;5112044;28;20171;-69
2023/08/30 08:21:33;;;;;;;6.53;3.47;;;22.20;1.00;;;;;;5093943;28;20193;-69
2023/08/30 08:23:58;;;;;;;3.83;3.10;;;21.50;1.00;;;;;;5112068;28;20410;-69
2023/08/30 08:26:25;;;;;;;5.13;4.30;;;21.10;1.00;;;;;;5112204;28;20423;-69
2023/08/30 08:28:50;;;;;;;6.60;4.47;;;21.00;1.00;;;;;;5111990;28;20168;-69
2023/08/30 08:31:16;;;;;;;5.30;4.47;;;20.60;1.00;;;;;;5111823;28;20455;-69
2023/08/30 08:33:41;;;;;;;9.53;3.87;;;20.30;1.00;;;;;;5111763;28;20657;-69
2023/08/30 08:36:07;;;;;;;5.20;4.17;;;20.50;1.00;;;;;;5112068;28;20251;-69
2023/08/30 08:38:32;;;;;;;4.37;3.80;;;20.30;1.00;;;;;;5112100;28;20233;-69
2023/08/30 08:41:04;;;;;;;5.60;4.77;;;20.00;1.00;;;;;;5112003;28;20204;-69
2023/08/30 08:43:32;;;;;;;3.47;3.17;;;19.80;1.00;;;;;;5111714;28;20183;-69
2023/08/30 08:46:00;;;;;;;4.80;3.40;;;19.70;1.00;;;;;;5111806;28;20413;-69
2023/08/30 08:48:28;;;;;;;3.90;3.50;;;19.90;1.00;;;;;;5111970;28;20418;-69
2023/08/30 08:50:54;;;;;;;4.53;3.57;;;19.90;1.00;;;;;;5111996;28;20410;-69
2023/08/30 08:53:21;;;;;;;4.67;3.33;;;20.00;1.00;;;;;;5111625;28;20410;-69
2023/08/30 08:55:48;;;;;;;5.93;4.13;;;19.70;1.00;;;;;;5111804;28;20854;-69
2023/08/30 08:58:15;;;;;;;3.90;3.47;;;19.90;1.00;;;;;;5111759;28;20911;-69
2023/08/30 09:00:42;;;;;;;6.03;3.57;;;20.50;1.00;;;;;;5111718;28;20410;-69
2023/08/30 09:03:09;;;;;;;5.20;4.30;;;20.70;1.00;;;;;;5111718;28;20441;-69
2023/08/30 09:05:37;;;;;;;4.50;4.10;;;20.90;1.00;;;;;;5111684;28;20413;-69
2023/08/30 09:08:04;;;;;;;7.63;4.53;;;21.60;1.00;;;;;;5111814;28;20968;-69
2023/08/30 09:10:34;;;;;;;4.57;3.20;;;21.40;1.00;;;;;;5111763;28;20513;-69
2023/08/30 09:13:00;;;;;;;4.13;3.70;;;21.50;1.00;;;;;;5113541;28;20449;-69
2023/08/30 09:15:33;;;;;;;4.13;3.73;;;21.90;1.00;;;;;;5115238;28;20466;-69
2023/08/30 09:17:58;;;;;;;4.20;3.40;;;21.70;1.00;;;;;;5115947;28;20180;-69
2023/08/30 09:20:24;;;;;;;3.80;3.40;;;21.80;1.00;;;;;;5115392;28;20414;-69
2023/08/30 09:22:50;;;;;;;4.00;3.60;;;22.00;1.00;;;;;;5115057;28;20330;-69
2023/08/30 09:25:26;;;;;;;4.37;3.97;;;22.20;1.00;;;;;;5115351;28;20212;-69
2023/08/30 09:28:01;;;;;;;3.80;2.97;;;21.70;1.00;;;;;;5115265;28;20410;-69
2023/08/30 09:30:27;;;;;;;3.50;2.90;;;22.00;1.00;;;;;;5115251;28;20906;-69
2023/08/30 09:32:53;;;;;;;11.13;4.83;;;21.90;1.00;;;;;;5114814;28;20517;-70
2023/08/30 09:35:18;;;;;;;6.37;3.70;;;22.00;1.00;;;;;;5114998;28;20548;-70
2023/08/30 09:37:45;;;;;;;4.40;2.80;;;22.20;1.00;;;;;;5096768;28;20292;-69
2023/08/30 09:40:11;;;;;;;3.40;3.03;;;22.20;1.00;;;;;;5114921;28;20532;-69
2023/08/30 09:42:42;;;;;;;3.70;3.20;;;22.00;1.00;;;;;;5114698;28;20440;-70
2023/08/30 09:45:24;;;;;;;3.20;2.90;;;21.40;1.00;;;;;;5115082;28;20202;-69
2023/08/30 09:47:50;;;;;;;3.73;3.40;;;21.80;1.00;;;;;;5114994;28;20410;-69
2023/08/30 09:50:20;;;;;;;3.70;3.40;;;21.80;1.00;;;;;;5114746;28;20429;-69
2023/08/30 09:52:49;;;;;;;3.60;3.30;;;21.80;1.00;;;;;;5114820;28;20204;-69
2023/08/30 09:55:15;;;;;;;4.20;3.80;;;21.90;1.00;;;;;;5114604;28;20594;-69
2023/08/30 09:57:45;;;;;;;9.80;4.13;;;22.20;1.00;;;;;;5096344;28;20494;-69
2023/08/30 10:00:14;;;;;;;9.20;4.03;;;22.30;1.00;;;;;;5114633;28;20414;-69
2023/08/30 10:02:43;;;;;;;4.07;3.67;;;22.30;1.00;;;;;;5114276;28;20434;-69
2023/08/30 10:05:11;;;;;;;3.67;3.37;;;22.60;1.00;;;;;;5114413;28;20638;-69
2023/08/30 10:07:39;;;;;;;3.37;3.07;;;22.40;1.00;;;;;;5114520;28;20501;-69
2023/08/30 10:10:05;;;;;;;3.10;2.80;;;22.00;1.00;;;;;;5114530;28;20971;-69
2023/08/30 10:12:33;;;;;;;5.93;5.33;;;21.80;1.00;;;;;;5114232;28;20434;-69
2023/08/30 10:15:00;;;;;;;3.40;3.10;;;22.20;1.00;;;;;;5114322;28;20987;-69
2023/08/30 10:17:32;;;;;;;4.23;3.20;;;22.10;1.00;;;;;;5114036;28;20444;-69
2023/08/30 10:19:58;;;;;;;4.30;3.57;;;22.30;1.00;;;;;;5113980;28;20413;-69
2023/08/30 10:22:25;;;;;;;3.50;3.20;;;22.90;1.00;;;;;;5113831;28;20483;-69
2023/08/30 10:24:57;;;;;;;3.47;3.23;;;23.10;1.00;;;;;;5113205;28;20414;-69
2023/08/30 10:27:25;;;;;;;4.50;4.20;;;23.50;1.00;;;;;;5114214;28;20421;-69
2023/08/30 10:29:52;;;;;;;4.10;3.70;;;23.30;1.00;;;;;;5113995;28;20452;-69
2023/08/30 10:32:24;;;;;;;3.77;3.47;;;23.20;1.00;;;;;;5113460;28;20445;-69
2023/08/30 10:34:51;;;;;;;3.60;3.30;;;22.90;1.00;;;;;;5113946;28;21032;-69
2023/08/30 10:37:26;;;;;;;4.70;3.53;;;23.00;1.00;;;;;;5114232;28;20422;-69
2023/08/30 10:39:52;;;;;;;3.80;3.50;;;23.10;1.00;;;;;;5113975;28;20410;-69
2023/08/30 10:42:22;;;;;;;3.80;3.50;;;22.70;1.00;;;;;;5113432;28;20475;-69
2023/08/30 10:44:52;;;;;;;5.20;3.30;;;22.70;1.00;;;;;;5113788;28;20225;-69
2023/08/30 10:47:26;;;;;;;3.63;3.33;;;22.60;1.00;;;;;;5113724;28;20460;-69
2023/08/30 10:49:55;;;;;;;4.20;3.80;;;22.40;1.00;;;;;;5113711;28;20426;-69
2023/08/30 10:52:21;;;;;;;3.47;3.17;;;22.50;1.00;;;;;;5113320;28;20461;-69
2023/08/30 10:54:47;;;;;;;4.40;4.00;;;22.40;1.00;;;;;;5113901;28;20461;-69
2023/08/30 10:57:13;;;;;;;3.50;3.20;;;22.60;1.00;;;;;;5095160;28;20509;-70
2023/08/30 10:59:40;;;;;;;4.10;3.80;;;23.00;1.00;;;;;;5095134;28;20188;-69
2023/08/30 11:02:06;;;;;;;4.80;3.93;;;23.00;1.00;;;;;;5113077;28;20808;-69
2023/08/30 11:04:32;;;;;;;4.40;3.80;;;22.40;1.00;;;;;;5113334;28;20514;-69
2023/08/30 11:06:58;;;;;;;3.97;3.30;;;22.40;1.00;;;;;;5113333;28;20425;-69
2023/08/30 11:09:24;;;;;;;4.97;3.83;;;22.20;1.00;;;;;;5113251;28;20177;-69
2023/08/30 11:11:51;;;;;;;3.70;3.40;;;21.90;1.00;;;;;;5112716;28;20200;-69
2023/08/30 11:14:18;;;;;;;5.50;3.80;;;21.80;1.00;;;;;;5113071;28;20484;-69
2023/08/30 11:16:44;;;;;;;4.27;3.73;;;21.70;1.00;;;;;;5113170;28;20460;-69
2023/08/30 11:19:11;;;;;;;14.03;5.93;;;21.90;1.00;;;;;;5113121;28;20830;-69
2023/08/30 11:21:47;;;;;;;7.73;3.90;;;21.70;1.00;;;;;;5113148;28;20971;-69
2023/08/30 11:24:14;;;;;;;14.17;8.23;;;21.90;1.00;;;;;;5113107;28;20402;-69
2023/08/30 11:26:40;;;;;;;13.77;6.87;;;21.90;1.00;;;;;;5113540;28;20866;-70
2023/08/30 11:29:07;;;;;;;18.73;9.10;;;22.10;1.00;;;;;;5112799;28;20410;-70
2023/08/30 11:31:33;;;;;;;4.90;4.07;;;22.60;1.00;;;;;;5112693;28;20562;-70
2023/08/30 11:34:00;;;;;;;3.83;3.53;;;22.60;1.00;;;;;;5112754;28;20450;-70
2023/08/30 11:36:30;;;;;;;9.87;5.93;;;22.70;1.00;;;;;;5112676;28;20402;-70
2023/08/30 11:38:56;;;;;;;30.67;14.97;;;22.30;1.00;;;;;;5112685;28;20736;-68
2023/08/30 11:41:23;;;;;;;49.07;21.63;;;22.20;1.00;;;;;;5094306;28;20434;-69
2023/08/30 11:43:49;;;;;;;81.07;37.50;;;21.80;1.00;;;;;;5112627;28;20482;-69
2023/08/30 11:46:16;;;;;;;121.10;50.93;;;21.90;1.00;;;;;;5112435;28;20399;-69
2023/08/30 11:48:43;;;;;;;22.00;10.33;;;22.10;1.00;;;;;;5112509;28;20785;-69
2023/08/30 11:51:09;;;;;;;132.77;51.47;;;22.10;1.00;;;;;;5094059;28;20508;-69
2023/08/30 11:53:35;;;;;;;4.13;3.73;;;22.20;1.00;;;;;;5112135;28;20434;-68
2023/08/30 11:56:01;;;;;;;3.70;3.10;;;22.10;1.00;;;;;;5112510;28;20173;-69
2023/08/30 11:58:27;;;;;;;22.63;10.90;;;22.20;1.00;;;;;;5112455;28;20417;-69
2023/08/30 12:00:54;;;;;;;4.53;4.07;;;22.40;1.00;;;;;;5112199;28;20402;-69
2023/08/30 12:03:20;;;;;;;4.17;3.80;;;22.60;1.00;;;;;;5112191;28;20169;-69
2023/08/30 12:05:49;;;;;;;20.70;12.60;;;22.90;1.00;;;;;;5112344;28;20904;-69
2023/08/30 12:08:23;;;;;;;5.17;3.90;;;23.10;1.00;;;;;;5112220;28;20410;-69
2023/08/30 12:10:49;;;;;;;3.57;3.27;;;23.30;1.00;;;;;;5112174;28;20907;-69
2023/08/30 12:13:27;;;;;;;3.00;2.70;;;23.10;1.00;;;;;;5112000;28;20411;-70
2023/08/30 12:15:53;;;;;;;24.93;13.10;;;23.20;1.00;;;;;;5112224;28;20222;-69
2023/08/30 12:18:27;;;;;;;12.07;8.03;;;23.40;1.00;;;;;;5112313;28;20489;-69
2023/08/30 12:21:03;;;;;;;5.47;4.30;;;23.20;1.00;;;;;;5112128;28;20766;-69
2023/08/30 12:23:32;;;;;;;3.53;2.90;;;23.60;1.00;;;;;;5111999;28;20402;-70
2023/08/30 12:26:05;;;;;;;5.80;4.40;;;23.60;1.00;;;;;;5112256;28;20406;-70
2023/08/30 12:28:33;;;;;;;3.60;3.40;;;23.90;1.00;;;;;;5112321;28;20440;-69
2023/08/30 12:30:59;;;;;;;3.63;3.33;;;23.50;1.00;;;;;;5112053;28;20538;-69
2023/08/30 12:33:25;;;;;;;5.73;4.10;;;23.30;1.00;;;;;;5111851;28;20497;-69
2023/08/30 12:35:52;;;;;;;5.00;4.50;;;23.30;1.00;;;;;;5111995;28;20227;-69
2023/08/30 12:38:18;;;;;;;13.30;7.33;;;23.30;1.00;;;;;;5112465;28;20495;-69
2023/08/30 12:40:45;;;;;;;5.37;3.70;;;23.40;1.00;;;;;;5111888;28;20477;-70
2023/08/30 12:43:11;;;;;;;41.43;10.77;;;23.70;1.00;;;;;;5112047;28;20836;-69
2023/08/30 12:45:38;;;;;;;5.70;3.70;;;23.60;1.00;;;;;;5112113;28;20504;-70